Portada
METAR-TAF:

METAR-TAF

Aeroports :

Kerman, Iran

latitud: 30-15N, longitud: 056-58E, altitud: 1748 m

Observació

L'informe es va fer fa 19 minuts, a les 16:00 UTC
Vent 8 kt del Oest/Nord-Oest
Temperatura 13°C
Humitat 33%
Pressió 1018 hPa
Visibilitat 10 km o més
Escasses núvols a una alçada de 4000 ft

METAR: OIKK 311600Z 30008KT 9999 FEW040 13/M03 Q1017 A3006

Hora: 20:49 (16:19 UTC)

Pronòstic

L'informe es va fer fa 5 hores i 19 minuts, a les 11:00 UTC
Pronòstic vàlid del 31 a les 12 UTC al 01 a les 18 UTC
Vent 8 kt del Oest/Sud-Oest
Visibilitat: 8000 m
Temporalment
l' 31 a les 12 UTC al 31 a les 15 UTC
Vent 15 kt del Oest amb ràfegues de 25 kt
Temporalment
l' 01 a les 09 UTC al 01 a les 15 UTC
Vent 18 kt del Oest
Escasses núvols a una alçada de 3500 ft, Cumulonimbus.
Núvols disperses a una alçada de 4000 ft
Cel ennuvolat a una alçada de 12000 ft

TAF: OIKK 311100Z 3112/0118 25008KT 8000 NSC TEMPO 3112/3115 27015G25KT TEMPO 0109/0115 27018KT FEW035CB SCT040 BKN120

Observacions i pronòstics meteorològics de més de 4000 aeroports (METAR i TAF).

Les estacions disponibles són els punts grocs i vermells al mapa.

Posi el ratolí al punt desitjat per veure el nom de l'estació.

Feu clic per veure les observacions i els pronòstics meteorològics.

Per canviar el mapa: feu clic els botons verds amb una creu de color negre per apropar; al botó verd amb un guió per allunyar la imatge; o en les fletxes verdes per a mapes adjacents.


METAR-TAF: